createdAt,value
2022-11-02T07:12:14.106Z,29.23
2022-11-02T07:17:17.685Z,30.03
2022-11-02T07:22:21.305Z,33.87
2022-11-02T07:27:26.166Z,32.57
2022-11-02T07:32:29.689Z,33.30
2022-11-02T07:37:33.525Z,35.03
2022-11-02T07:42:38.896Z,35.17
2022-11-02T07:47:44.832Z,37.37
2022-11-02T07:52:49.908Z,34.97
2022-11-02T07:58:03.721Z,34.60
2022-11-02T08:03:09.212Z,31.63
2022-11-02T08:08:15.589Z,44.03
2022-11-02T08:13:22.000Z,49.83
2022-11-02T08:18:26.541Z,49.43
2022-11-02T08:23:30.000Z,42.53
2022-11-02T08:28:36.911Z,38.93
2022-11-02T08:33:40.460Z,35.40
2022-11-02T08:38:44.131Z,32.50
2022-11-02T08:43:49.119Z,35.03
2022-11-02T08:48:52.580Z,46.10
2022-11-02T08:53:56.337Z,43.63
2022-11-02T08:59:01.280Z,44.50
2022-11-02T09:04:04.911Z,43.07
2022-11-02T09:09:08.352Z,39.53
2022-11-02T09:14:13.299Z,38.20
2022-11-02T09:19:16.823Z,35.53
2022-11-02T09:24:20.407Z,31.17
2022-11-02T09:29:25.305Z,27.03
2022-11-02T09:34:28.820Z,25.23
2022-11-02T09:39:32.412Z,22.80
2022-11-02T09:44:44.322Z,22.00
2022-11-02T09:49:47.948Z,23.83
2022-11-02T09:54:53.769Z,22.33
2022-11-02T09:59:59.087Z,22.43
2022-11-02T10:05:12.184Z,20.17
2022-11-02T10:10:18.307Z,19.70
2022-11-02T10:15:25.501Z,17.90
2022-11-02T10:20:31.542Z,18.07
2022-11-02T10:25:36.138Z,17.17
2022-11-02T10:30:41.914Z,17.10
2022-11-02T10:36:12.617Z,14.37
2022-11-02T10:41:25.517Z,14.17
2022-11-02T10:46:40.189Z,15.07
2022-11-02T10:51:43.736Z,16.63
2022-11-02T10:56:48.257Z,11.97
2022-11-02T11:02:13.491Z,13.10
2022-11-02T11:07:20.077Z,14.00
2022-11-02T11:12:27.909Z,13.20
2022-11-02T11:23:20.656Z,10.30
2022-11-02T11:28:26.168Z,10.73
2022-11-02T11:33:32.901Z,14.97
2022-11-02T11:38:36.427Z,10.67
2022-11-02T11:43:41.336Z,17.77
2022-11-02T11:48:48.430Z,13.93
2022-11-02T11:54:07.137Z,13.80
2022-11-02T11:59:21.412Z,14.40
2022-11-02T12:04:32.244Z,7.73
2022-11-02T12:09:39.164Z,8.40
2022-11-02T12:14:51.288Z,9.70
2022-11-02T12:20:05.347Z,15.33
2022-11-02T12:25:19.487Z,14.10
2022-11-02T12:30:23.467Z,15.80
2022-11-02T12:35:42.719Z,13.57
2022-11-02T12:40:53.609Z,13.87
2022-11-02T12:46:03.183Z,13.07
2022-11-02T12:51:11.503Z,13.60
2022-11-02T12:56:19.746Z,14.33
2022-11-02T13:01:28.587Z,13.80
2022-11-02T13:06:37.332Z,13.23
2022-11-02T13:11:43.791Z,20.73
2022-11-02T13:16:50.649Z,20.07
2022-11-02T13:21:57.394Z,25.87
2022-11-02T13:27:14.245Z,31.30
2022-11-02T13:32:22.864Z,40.63
2022-11-02T13:37:29.695Z,32.13
2022-11-02T13:42:56.796Z,41.37
2022-11-02T13:48:23.172Z,43.70
2022-11-02T13:53:30.435Z,25.80
2022-11-02T13:58:36.312Z,25.53
2022-11-02T14:03:49.447Z,19.47
2022-11-02T14:08:57.185Z,30.67
2022-11-02T14:14:22.654Z,18.20
2022-11-02T14:19:32.355Z,22.27
2022-11-02T14:25:08.385Z,24.33
2022-11-02T14:30:46.018Z,31.23
2022-11-02T14:35:55.620Z,29.50
2022-11-02T14:41:06.212Z,39.67
2022-11-02T14:46:18.037Z,63.33
2022-11-02T14:51:24.020Z,45.40
2022-11-02T14:56:49.267Z,41.07
2022-11-02T15:01:56.512Z,36.67
2022-11-02T15:07:02.095Z,36.20
2022-11-02T15:12:27.246Z,24.57
2022-11-02T15:17:53.313Z,21.63
2022-11-02T15:23:01.239Z,17.60
2022-11-02T15:28:08.701Z,28.13
2022-11-02T15:33:21.269Z,31.90
2022-11-02T15:38:33.831Z,23.43
2022-11-02T15:44:21.756Z,17.87
2022-11-02T15:49:38.115Z,17.97
2022-11-02T16:10:51.795Z,10.53
2022-11-02T16:16:05.871Z,12.77
2022-11-02T16:22:24.909Z,12.20
2022-11-02T16:34:58.495Z,13.50
2022-11-02T16:40:03.042Z,22.53
2022-11-02T16:45:56.787Z,35.80
2022-11-02T17:13:18.800Z,37.10
2022-11-02T17:18:29.697Z,43.90
2022-11-02T17:23:37.334Z,37.67
2022-11-02T17:28:46.861Z,28.03
2022-11-02T17:33:50.395Z,58.50
2022-11-02T17:38:54.042Z,53.57
2022-11-02T17:44:19.065Z,52.17
2022-11-02T17:49:23.521Z,40.00
2022-11-02T17:54:27.530Z,29.53
2022-11-02T17:59:32.480Z,28.67
2022-11-02T18:04:36.056Z,27.50
2022-11-02T18:09:41.661Z,40.67
2022-11-02T18:14:46.562Z,23.27
2022-11-02T18:19:51.089Z,21.70
2022-11-02T18:24:58.641Z,26.27
2022-11-02T18:30:05.149Z,37.30
2022-11-02T18:35:10.671Z,42.37
2022-11-02T18:40:16.336Z,52.80
2022-11-02T19:00:16.203Z,75.10
2022-11-02T19:05:37.511Z,66.50
2022-11-02T19:10:41.146Z,72.80
2022-11-02T19:15:46.042Z,65.73
2022-11-02T19:28:11.459Z,110.73
2022-11-02T19:33:16.267Z,109.00
2022-11-02T19:38:19.743Z,83.10
2022-11-02T19:43:23.223Z,114.27
2022-11-02T20:03:36.337Z,143.17
2022-11-02T20:08:40.292Z,164.40
2022-11-02T20:21:20.320Z,76.93
2022-11-02T20:41:11.150Z,49.60
2022-11-02T21:06:57.876Z,38.03
2022-11-02T21:25:24.099Z,50.70
2022-11-02T22:06:01.958Z,18.13
